Terminal Aerodrome Forecast
Issued by NWS Bismarck, ND

Home | Current Version | Previous Version | Text Only | Print | Product List | Glossary On
Versions: 1 2 3 4 5 6 7 8 9 10 11 12 13 14 15 16 17
000
FTUS43 KBIS 030530
TAFISN
TAF
KISN 030530Z 0306/0406 VRB03KT P6SM SCT150
     FM031500 03006KT P6SM FEW250
     FM031800 36010KT P6SM SKC
     FM032100 34012KT P6SM SCT080
     FM040300 36014KT P6SM SCT050 BKN080=

USA.gov is the U.S. government's official web portal to all federal, state and local government web resources and services.